Time;durP1;ratioP1;P1;durP2;ratioP2;P2;SDS_P1;SDS_P2;PMS_P1;PMS_P2;Temp;Humidity;BMP_temperature;BMP_pressure;BME280_temperature;BME280_humidity;BME280_pressure;Samples;Min_cycle;Max_cycle;Signal;HPM_P1;HPM_P2
2021/04/19 00:00:09;;;;;;;28.23;26.75;;;;;;;;;;5028442;28;20037;-54
2021/04/19 00:02:36;;;;;;;27.13;25.83;;;;;;;;;;5018944;28;20109;-54
2021/04/19 00:05:04;;;;;;;27.80;26.42;;;;;;;;;;5022830;28;20035;-53
2021/04/19 00:07:31;;;;;;;28.45;26.95;;;;;;;;;;5029496;28;20037;-54
2021/04/19 00:09:58;;;;;;;27.50;26.00;;;;;;;;;;5028857;28;20050;-53
2021/04/19 00:12:24;;;;;;;25.75;24.60;;;;;;;;;;5026385;28;20037;-53
2021/04/19 00:14:50;;;;;;;28.58;27.08;;;;;;;;;;5034274;28;20441;-54
2021/04/19 00:17:16;;;;;;;28.35;26.95;;;;;;;;;;5031348;28;20103;-51
2021/04/19 00:19:43;;;;;;;26.73;25.23;;;;;;;;;;5030820;28;20045;-54
2021/04/19 00:22:09;;;;;;;27.33;25.90;;;;;;;;;;5027189;28;20398;-53
2021/04/19 00:24:35;;;;;;;27.52;26.33;;;;;;;;;;5022003;28;20093;-53
2021/04/19 00:27:02;;;;;;;24.30;23.40;;;;;;;;;;5034196;28;20030;-54
2021/04/19 00:29:29;;;;;;;24.70;23.58;;;;;;;;;;5033611;28;20030;-53
2021/04/19 00:31:55;;;;;;;26.08;25.08;;;;;;;;;;5031523;28;20042;-54
2021/04/19 00:34:22;;;;;;;23.55;22.75;;;;;;;;;;5031069;28;20041;-54
2021/04/19 00:36:48;;;;;;;23.27;22.27;;;;;;;;;;5030980;28;20045;-54
2021/04/19 00:39:14;;;;;;;25.70;24.60;;;;;;;;;;5020139;28;20048;-52
2021/04/19 00:41:41;;;;;;;23.77;22.80;;;;;;;;;;5030379;28;20410;-49
2021/04/19 00:44:07;;;;;;;24.98;23.83;;;;;;;;;;5025214;28;20045;-51
2021/04/19 00:46:33;;;;;;;26.30;25.30;;;;;;;;;;5028211;28;20367;-53
2021/04/19 00:48:59;;;;;;;24.40;23.48;;;;;;;;;;5033712;28;20037;-52
2021/04/19 00:51:26;;;;;;;26.17;24.92;;;;;;;;;;5032043;28;20041;-54
2021/04/19 00:53:52;;;;;;;26.35;25.25;;;;;;;;;;5030925;28;20549;-54
2021/04/19 00:56:19;;;;;;;24.90;24.05;;;;;;;;;;5032829;28;20067;-53
2021/04/19 00:58:46;;;;;;;26.15;25.13;;;;;;;;;;5033298;28;20099;-53
2021/04/19 01:01:13;;;;;;;24.77;23.58;;;;;;;;;;5032916;28;20053;-54
2021/04/19 01:03:40;;;;;;;24.63;23.73;;;;;;;;;;5032240;28;20092;-54
2021/04/19 01:06:06;;;;;;;24.63;23.63;;;;;;;;;;5032267;28;20053;-54
2021/04/19 01:08:33;;;;;;;28.30;26.70;;;;;;;;;;5030414;28;20386;-53
2021/04/19 01:11:00;;;;;;;27.98;26.48;;;;;;;;;;5033146;28;20029;-53
2021/04/19 01:13:26;;;;;;;31.15;29.27;;;;;;;;;;5031971;28;20536;-53
2021/04/19 01:15:53;;;;;;;28.35;26.80;;;;;;;;;;5031564;28;20493;-54
2021/04/19 01:18:19;;;;;;;30.08;28.40;;;;;;;;;;5030386;28;20523;-54
2021/04/19 01:20:46;;;;;;;32.33;30.30;;;;;;;;;;5031266;28;20543;-54
2021/04/19 01:23:13;;;;;;;30.27;28.52;;;;;;;;;;5032610;28;20037;-52
2021/04/19 01:25:39;;;;;;;29.42;28.00;;;;;;;;;;5030400;28;20405;-52
2021/04/19 01:28:06;;;;;;;30.73;29.08;;;;;;;;;;5015676;28;20065;-54
2021/04/19 01:30:33;;;;;;;31.10;29.67;;;;;;;;;;5026664;28;20050;-53
2021/04/19 01:33:00;;;;;;;32.58;30.70;;;;;;;;;;5029303;28;20045;-53
2021/04/19 01:35:27;;;;;;;31.40;29.67;;;;;;;;;;5030270;28;20412;-53
2021/04/19 01:37:53;;;;;;;30.85;29.17;;;;;;;;;;5032384;28;20038;-53
2021/04/19 01:40:21;;;;;;;28.65;27.10;;;;;;;;;;5023706;28;20359;-49
2021/04/19 01:42:47;;;;;;;27.20;26.25;;;;;;;;;;5024845;28;20522;-51
2021/04/19 01:45:14;;;;;;;26.05;25.05;;;;;;;;;;5030568;28;20065;-53
2021/04/19 01:47:41;;;;;;;29.70;28.30;;;;;;;;;;5028398;28;20035;-53
2021/04/19 01:50:12;;;;;;;29.02;27.52;;;;;;;;;;5029703;28;20041;-53
2021/04/19 01:52:38;;;;;;;33.03;30.70;;;;;;;;;;5015244;28;20041;-52
2021/04/19 01:55:09;;;;;;;31.05;29.17;;;;;;;;;;5031712;28;20045;-53
2021/04/19 01:57:36;;;;;;;35.72;33.20;;;;;;;;;;5032258;28;21529;-54
2021/04/19 02:00:04;;;;;;;32.30;30.35;;;;;;;;;;5017852;28;20049;-54
2021/04/19 02:03:02;;;;;;;31.75;29.65;;;;;;;;;;5030355;28;20037;-53
2021/04/19 02:05:48;;;;;;;34.88;32.67;;;;;;;;;;5029457;28;20656;-52
2021/04/19 02:08:15;;;;;;;30.27;28.48;;;;;;;;;;5016861;28;20049;-52
2021/04/19 02:10:51;;;;;;;34.47;32.10;;;;;;;;;;5028357;28;20560;-53
2021/04/19 02:13:20;;;;;;;33.60;31.33;;;;;;;;;;5019476;28;20033;-53
2021/04/19 02:15:46;;;;;;;35.25;32.67;;;;;;;;;;5027654;28;20073;-53
2021/04/19 02:18:21;;;;;;;33.17;30.98;;;;;;;;;;5025495;28;20049;-50
2021/04/19 02:20:50;;;;;;;30.77;29.23;;;;;;;;;;5027028;28;20729;-53
2021/04/19 02:23:28;;;;;;;30.60;28.90;;;;;;;;;;5028972;28;20037;-54
2021/04/19 02:25:58;;;;;;;27.58;25.83;;;;;;;;;;5030346;28;20041;-53
2021/04/19 02:28:28;;;;;;;28.17;26.95;;;;;;;;;;5017458;28;20038;-53
2021/04/19 02:30:57;;;;;;;29.13;27.42;;;;;;;;;;5028184;28;20048;-52
2021/04/19 02:33:24;;;;;;;30.48;29.08;;;;;;;;;;5030037;28;20033;-54
2021/04/19 02:35:51;;;;;;;30.65;29.20;;;;;;;;;;5026237;28;20125;-53
2021/04/19 02:38:27;;;;;;;28.27;27.25;;;;;;;;;;5029154;28;20057;-54
2021/04/19 02:40:54;;;;;;;28.13;26.58;;;;;;;;;;5024465;28;20056;-53
2021/04/19 02:43:22;;;;;;;28.70;27.50;;;;;;;;;;5030862;28;20072;-54
2021/04/19 02:45:50;;;;;;;29.13;27.70;;;;;;;;;;5029622;28;20050;-52
2021/04/19 02:48:17;;;;;;;32.22;30.80;;;;;;;;;;5025405;28;20034;-52
2021/04/19 02:50:43;;;;;;;31.30;29.70;;;;;;;;;;5027730;28;20045;-53
2021/04/19 02:53:10;;;;;;;30.98;29.23;;;;;;;;;;5013740;28;20433;-53
2021/04/19 02:55:37;;;;;;;29.00;27.83;;;;;;;;;;5030748;28;20041;-53
2021/04/19 02:58:04;;;;;;;29.98;28.88;;;;;;;;;;5030566;28;20072;-52
2021/04/19 03:00:33;;;;;;;32.13;30.73;;;;;;;;;;5021191;28;20052;-53
2021/04/19 03:03:06;;;;;;;28.38;26.83;;;;;;;;;;5027907;28;20555;-50
2021/04/19 03:05:33;;;;;;;30.63;29.05;;;;;;;;;;5029126;28;20041;-53
2021/04/19 03:08:01;;;;;;;30.70;29.38;;;;;;;;;;5030225;28;20038;-50
2021/04/19 03:10:30;;;;;;;28.92;27.83;;;;;;;;;;5028008;28;20053;-53
2021/04/19 03:12:58;;;;;;;32.22;30.88;;;;;;;;;;5030138;28;20049;-53
2021/04/19 03:15:30;;;;;;;30.95;29.75;;;;;;;;;;5028701;28;20561;-53
2021/04/19 03:17:58;;;;;;;30.17;28.88;;;;;;;;;;5029866;28;20041;-53
2021/04/19 03:20:25;;;;;;;27.90;26.80;;;;;;;;;;5020597;28;20053;-54
2021/04/19 03:22:53;;;;;;;29.92;28.70;;;;;;;;;;5023168;28;20038;-52
2021/04/19 03:25:20;;;;;;;33.53;31.77;;;;;;;;;;5015124;28;20096;-51
2021/04/19 03:27:47;;;;;;;30.40;29.10;;;;;;;;;;5028818;28;20052;-53
2021/04/19 03:30:14;;;;;;;31.63;30.20;;;;;;;;;;5029653;28;20065;-54
2021/04/19 03:32:47;;;;;;;29.88;28.67;;;;;;;;;;5022581;28;20041;-51
2021/04/19 03:35:16;;;;;;;30.50;29.23;;;;;;;;;;5028331;28;20501;-53
2021/04/19 03:37:44;;;;;;;31.45;30.00;;;;;;;;;;5027465;28;20045;-51
2021/04/19 03:40:14;;;;;;;32.63;31.17;;;;;;;;;;5030112;28;20041;-53
2021/04/19 03:42:41;;;;;;;29.33;28.23;;;;;;;;;;5027918;28;20041;-52
2021/04/19 03:45:09;;;;;;;32.47;31.17;;;;;;;;;;5023907;28;20057;-52
2021/04/19 03:47:36;;;;;;;30.73;29.45;;;;;;;;;;5029178;28;20034;-52
2021/04/19 03:50:03;;;;;;;30.20;29.08;;;;;;;;;;5020770;28;20030;-52
2021/04/19 03:52:35;;;;;;;32.20;30.30;;;;;;;;;;5020510;28;20050;-51
2021/04/19 03:55:04;;;;;;;32.03;30.55;;;;;;;;;;5028986;28;20095;-49
2021/04/19 03:57:32;;;;;;;31.55;29.95;;;;;;;;;;5013008;28;20108;-53
2021/04/19 04:00:00;;;;;;;30.92;29.48;;;;;;;;;;5023387;28;20542;-53
2021/04/19 04:02:27;;;;;;;31.67;30.23;;;;;;;;;;5024126;28;20371;-51
2021/04/19 04:04:54;;;;;;;30.67;29.40;;;;;;;;;;5030921;28;20045;-52
2021/04/19 04:07:21;;;;;;;32.92;31.63;;;;;;;;;;5027625;28;20029;-52
2021/04/19 04:09:48;;;;;;;26.40;25.38;;;;;;;;;;5030785;28;20120;-53
2021/04/19 04:12:15;;;;;;;30.45;29.23;;;;;;;;;;5025154;28;20087;-53
2021/04/19 04:14:51;;;;;;;31.10;29.55;;;;;;;;;;5028124;28;20045;-53
2021/04/19 04:17:17;;;;;;;30.23;28.92;;;;;;;;;;5025195;28;20046;-52
2021/04/19 04:19:44;;;;;;;30.75;29.35;;;;;;;;;;5026265;28;20092;-52
2021/04/19 04:22:10;;;;;;;31.20;29.80;;;;;;;;;;5028251;28;20033;-53
2021/04/19 04:24:37;;;;;;;33.35;31.90;;;;;;;;;;5029124;28;20410;-53
2021/04/19 04:27:04;;;;;;;33.22;31.65;;;;;;;;;;5028195;28;20049;-54
2021/04/19 04:29:31;;;;;;;32.08;30.65;;;;;;;;;;5030337;28;20562;-52
2021/04/19 04:31:57;;;;;;;32.60;31.10;;;;;;;;;;5027663;28;20448;-52
2021/04/19 04:34:23;;;;;;;32.70;30.80;;;;;;;;;;5027948;28;20060;-53
2021/04/19 04:36:50;;;;;;;34.22;32.60;;;;;;;;;;5030027;28;20053;-53
2021/04/19 04:39:16;;;;;;;30.92;28.95;;;;;;;;;;5028785;28;20049;-50
2021/04/19 04:41:43;;;;;;;30.23;28.92;;;;;;;;;;5026437;28;20045;-50
2021/04/19 04:44:10;;;;;;;31.83;30.30;;;;;;;;;;5028305;28;20497;-51
2021/04/19 04:46:45;;;;;;;31.70;30.17;;;;;;;;;;5026369;28;20100;-48
2021/04/19 04:49:19;;;;;;;31.67;30.38;;;;;;;;;;5021753;28;20064;-53
2021/04/19 04:51:47;;;;;;;34.65;33.00;;;;;;;;;;5029918;28;20033;-53
2021/04/19 04:54:17;;;;;;;32.88;31.38;;;;;;;;;;5033070;28;20029;-52
2021/04/19 04:56:45;;;;;;;32.72;31.35;;;;;;;;;;5031640;28;20494;-53
2021/04/19 04:59:11;;;;;;;32.95;31.27;;;;;;;;;;5037761;28;20087;-53
2021/04/19 05:01:38;;;;;;;31.85;30.05;;;;;;;;;;5018164;28;20038;-52
2021/04/19 05:04:05;;;;;;;35.08;32.83;;;;;;;;;;5030845;28;20064;-53
2021/04/19 05:06:32;;;;;;;33.10;31.35;;;;;;;;;;5031954;28;20113;-54
2021/04/19 05:09:00;;;;;;;32.60;31.20;;;;;;;;;;5033603;28;20048;-53
2021/04/19 05:11:26;;;;;;;32.60;30.60;;;;;;;;;;5032971;28;20045;-54
2021/04/19 05:13:58;;;;;;;31.85;30.33;;;;;;;;;;5033788;28;20041;-53
2021/04/19 05:16:25;;;;;;;34.65;32.80;;;;;;;;;;5028142;28;20037;-53
2021/04/19 05:18:52;;;;;;;37.10;34.97;;;;;;;;;;5018322;28;20124;-54
2021/04/19 05:21:19;;;;;;;34.22;32.30;;;;;;;;;;5025003;28;20037;-55
2021/04/19 05:23:45;;;;;;;34.25;32.50;;;;;;;;;;5029355;28;20406;-49
2021/04/19 05:26:11;;;;;;;35.22;33.50;;;;;;;;;;5032173;28;20038;-51
2021/04/19 05:28:41;;;;;;;32.80;31.30;;;;;;;;;;5024617;28;20067;-49
2021/04/19 05:31:13;;;;;;;35.38;33.55;;;;;;;;;;5019256;28;20473;-49
2021/04/19 05:33:39;;;;;;;35.40;33.72;;;;;;;;;;5021106;28;20037;-52
2021/04/19 05:36:09;;;;;;;31.38;29.90;;;;;;;;;;5029088;28;20371;-51
2021/04/19 05:38:36;;;;;;;33.30;31.85;;;;;;;;;;5018914;28;20041;-49
2021/04/19 05:41:03;;;;;;;31.40;29.80;;;;;;;;;;5023645;28;20045;-50
2021/04/19 05:43:29;;;;;;;33.65;31.95;;;;;;;;;;5021713;28;20076;-51
2021/04/19 05:45:57;;;;;;;34.55;32.75;;;;;;;;;;5023538;28;20045;-48
2021/04/19 05:48:24;;;;;;;32.90;31.35;;;;;;;;;;5030710;28;20113;-45
2021/04/19 05:50:52;;;;;;;34.22;32.33;;;;;;;;;;5037529;28;20099;-48
2021/04/19 05:53:18;;;;;;;32.65;30.95;;;;;;;;;;5032895;28;20041;-48
2021/04/19 05:55:44;;;;;;;32.25;30.75;;;;;;;;;;5029242;28;20406;-48
2021/04/19 05:58:29;;;;;;;31.92;30.52;;;;;;;;;;5041463;28;20049;-51
2021/04/19 06:01:03;;;;;;;34.72;32.72;;;;;;;;;;5025404;28;20045;-49
2021/04/19 06:03:48;;;;;;;35.83;33.38;;;;;;;;;;5022429;28;20052;-50
2021/04/19 06:06:21;;;;;;;36.90;34.30;;;;;;;;;;5024554;28;20088;-48
2021/04/19 06:09:02;;;;;;;34.42;32.33;;;;;;;;;;5027760;28;20092;-50
2021/04/19 06:11:51;;;;;;;33.80;31.65;;;;;;;;;;5020311;28;20033;-49
2021/04/19 06:14:20;;;;;;;34.90;32.58;;;;;;;;;;5032703;28;20473;-45
2021/04/19 06:16:46;;;;;;;34.72;32.50;;;;;;;;;;5028852;28;20042;-51
2021/04/19 06:19:14;;;;;;;33.33;31.60;;;;;;;;;;5031165;28;20046;-48
2021/04/19 06:21:41;;;;;;;35.17;33.20;;;;;;;;;;5021328;28;20033;-47
2021/04/19 06:24:08;;;;;;;31.08;29.65;;;;;;;;;;5021541;28;20041;-45
2021/04/19 06:26:35;;;;;;;30.88;29.02;;;;;;;;;;5032045;28;20049;-51
2021/04/19 06:29:06;;;;;;;27.48;26.13;;;;;;;;;;5025544;28;20092;-49
2021/04/19 06:31:33;;;;;;;29.20;27.55;;;;;;;;;;5016472;28;20037;-50
2021/04/19 06:34:06;;;;;;;;;;;;;;;;;;5030838;28;20041;-48
2021/04/19 06:36:43;;;;;;;29.38;28.17;;;;;;;;;;5025914;28;19924;-50
2021/04/19 06:39:10;;;;;;;29.10;27.73;;;;;;;;;;5026190;28;20045;-49
2021/04/19 06:41:37;;;;;;;30.48;28.52;;;;;;;;;;5022557;28;20065;-49
2021/04/19 06:44:04;;;;;;;26.92;25.65;;;;;;;;;;5020220;28;20064;-50
2021/04/19 06:46:32;;;;;;;24.85;23.67;;;;;;;;;;5032166;28;20042;-48
2021/04/19 06:48:59;;;;;;;25.52;24.33;;;;;;;;;;5026834;28;20037;-45
2021/04/19 06:51:25;;;;;;;28.55;27.25;;;;;;;;;;5016356;28;20037;-49
2021/04/19 06:53:52;;;;;;;27.38;26.13;;;;;;;;;;5026533;28;20048;-49
2021/04/19 06:56:27;;;;;;;28.40;26.02;;;;;;;;;;5029867;28;20053;-49
2021/04/19 06:58:56;;;;;;;27.15;25.63;;;;;;;;;;5031326;28;20056;-48
2021/04/19 07:01:25;;;;;;;24.98;23.55;;;;;;;;;;5029671;28;20033;-48
2021/04/19 07:04:01;;;;;;;24.77;23.20;;;;;;;;;;5030401;28;20370;-48
2021/04/19 07:06:31;;;;;;;26.50;24.88;;;;;;;;;;5025744;28;20030;-50
2021/04/19 07:09:12;;;;;;;25.80;24.52;;;;;;;;;;5026892;28;20041;-49
2021/04/19 07:11:40;;;;;;;27.70;26.48;;;;;;;;;;5029202;28;20037;-49
2021/04/19 07:14:08;;;;;;;30.23;28.65;;;;;;;;;;5030253;28;20382;-51
2021/04/19 07:16:34;;;;;;;31.52;29.73;;;;;;;;;;5030344;28;20041;-51
2021/04/19 07:19:02;;;;;;;27.55;25.98;;;;;;;;;;5014846;28;20034;-48
2021/04/19 07:21:29;;;;;;;28.45;27.05;;;;;;;;;;5023649;28;20526;-50
2021/04/19 07:23:55;;;;;;;28.80;27.40;;;;;;;;;;5025924;28;20112;-50
2021/04/19 07:26:21;;;;;;;28.65;26.95;;;;;;;;;;5030874;28;20121;-49
2021/04/19 07:28:48;;;;;;;28.35;26.63;;;;;;;;;;5026870;28;20367;-46
2021/04/19 07:31:15;;;;;;;28.27;26.77;;;;;;;;;;5013856;28;20038;-47
2021/04/19 07:33:42;;;;;;;27.52;26.42;;;;;;;;;;5023559;28;20048;-50
2021/04/19 07:36:28;;;;;;;28.38;26.90;;;;;;;;;;5021417;28;20049;-52
2021/04/19 07:38:58;;;;;;;28.05;26.65;;;;;;;;;;5021589;28;20041;-51
2021/04/19 07:41:44;;;;;;;27.98;26.63;;;;;;;;;;5024984;28;20391;-52
2021/04/19 07:44:10;;;;;;;24.70;23.63;;;;;;;;;;5019112;28;20049;-51
2021/04/19 07:46:36;;;;;;;25.52;24.25;;;;;;;;;;5017547;28;20050;-51
2021/04/19 07:49:07;;;;;;;13.23;12.57;;;;;;;;;;5024399;28;20041;-52
2021/04/19 07:51:34;;;;;;;22.80;21.60;;;;;;;;;;5023239;28;20088;-52
2021/04/19 07:54:13;;;;;;;17.92;17.00;;;;;;;;;;5027867;28;20037;-51
2021/04/19 07:56:46;;;;;;;16.48;15.27;;;;;;;;;;5022472;28;20482;-49
2021/04/19 07:59:25;;;;;;;11.27;10.40;;;;;;;;;;5013189;28;20608;-49
2021/04/19 08:02:01;;;;;;;8.55;8.25;;;;;;;;;;5027922;28;20102;-52
2021/04/19 08:04:28;;;;;;;9.18;8.77;;;;;;;;;;5027198;28;20037;-50
2021/04/19 08:06:55;;;;;;;7.57;7.38;;;;;;;;;;5030582;28;20084;-51
2021/04/19 08:09:31;;;;;;;7.60;7.30;;;;;;;;;;5028481;28;20099;-52
2021/04/19 08:12:07;;;;;;;7.85;7.57;;;;;;;;;;5012729;28;20034;-49
2021/04/19 08:14:34;;;;;;;8.05;7.75;;;;;;;;;;5029708;28;20111;-53
2021/04/19 08:17:11;;;;;;;7.80;7.50;;;;;;;;;;5028590;28;20049;-52
2021/04/19 08:19:39;;;;;;;6.82;6.63;;;;;;;;;;5028740;28;20571;-49
2021/04/19 08:22:15;;;;;;;7.18;6.97;;;;;;;;;;5028754;28;20053;-51
2021/04/19 08:24:42;;;;;;;6.65;6.28;;;;;;;;;;5020941;28;20045;-50
2021/04/19 08:27:16;;;;;;;5.97;5.78;;;;;;;;;;5016993;28;20070;-52
2021/04/19 08:29:46;;;;;;;6.38;6.18;;;;;;;;;;5026919;28;20129;-52
2021/04/19 08:32:17;;;;;;;6.72;6.28;;;;;;;;;;5017827;28;20101;-52
2021/04/19 08:34:43;;;;;;;6.57;6.38;;;;;;;;;;5023778;28;20069;-53
2021/04/19 08:37:11;;;;;;;6.40;6.10;;;;;;;;;;5025772;28;20045;-52
2021/04/19 08:39:38;;;;;;;5.78;5.55;;;;;;;;;;5018454;28;20489;-52
2021/04/19 08:42:17;;;;;;;6.18;5.93;;;;;;;;;;5031942;28;20050;-52
2021/04/19 08:44:44;;;;;;;5.80;5.47;;;;;;;;;;5031873;28;20107;-53
2021/04/19 08:47:13;;;;;;;5.13;5.03;;;;;;;;;;5033774;28;20041;-52
2021/04/19 08:49:40;;;;;;;3.83;3.53;;;;;;;;;;5032016;28;20120;-52
2021/04/19 08:52:07;;;;;;;4.63;4.38;;;;;;;;;;5032860;28;20069;-53
2021/04/19 08:54:33;;;;;;;3.97;3.88;;;;;;;;;;5033681;28;20046;-53
2021/04/19 08:56:59;;;;;;;6.07;5.88;;;;;;;;;;5031349;28;20068;-52
2021/04/19 08:59:31;;;;;;;5.10;5.00;;;;;;;;;;5033231;28;20041;-53
2021/04/19 09:01:58;;;;;;;7.97;7.78;;;;;;;;;;5031912;28;20037;-49
2021/04/19 09:04:24;;;;;;;5.28;4.97;;;;;;;;;;5031396;28;20053;-52
2021/04/19 09:06:55;;;;;;;6.18;5.97;;;;;;;;;;5032899;28;20034;-52
2021/04/19 09:09:35;;;;;;;5.95;5.75;;;;;;;;;;5026332;28;20049;-52
2021/04/19 09:12:07;;;;;;;6.88;6.68;;;;;;;;;;5016022;28;20095;-52
2021/04/19 09:14:35;;;;;;;5.47;5.38;;;;;;;;;;5031772;28;20044;-53
2021/04/19 09:17:02;;;;;;;6.05;5.75;;;;;;;;;;5031369;28;20080;-52
2021/04/19 09:19:33;;;;;;;4.20;4.10;;;;;;;;;;5023014;28;20129;-53
2021/04/19 09:22:09;;;;;;;5.00;4.90;;;;;;;;;;5029587;28;20128;-52
2021/04/19 09:24:54;;;;;;;6.10;6.00;;;;;;;;;;5032617;28;20107;-53
2021/04/19 09:27:40;;;;;;;8.52;8.13;;;;;;;;;;5024626;28;20508;-50
2021/04/19 09:30:25;;;;;;;10.10;9.50;;;;;;;;;;5027186;28;20052;-53
2021/04/19 09:33:04;;;;;;;4.25;4.05;;;;;;;;;;5018191;28;20722;-52
2021/04/19 09:35:46;;;;;;;3.83;3.72;;;;;;;;;;5032408;28;20486;-51
2021/04/19 09:38:49;;;;;;;5.03;3.17;;;;;;;;;;5030391;28;20045;-53
2021/04/19 09:41:17;;;;;;;3.25;3.15;;;;;;;;;;5028237;28;20450;-52
2021/04/19 09:43:47;;;;;;;3.60;3.50;;;;;;;;;;5030921;28;20490;-48
2021/04/19 09:46:16;;;;;;;2.10;2.10;;;;;;;;;;5029196;28;20091;-53
2021/04/19 09:48:44;;;;;;;2.33;2.22;;;;;;;;;;5016128;28;20124;-53
2021/04/19 09:51:14;;;;;;;7.07;6.68;;;;;;;;;;5023883;28;20855;-53
2021/04/19 09:53:44;;;;;;;2.58;2.58;;;;;;;;;;5023413;28;20048;-53
2021/04/19 09:56:11;;;;;;;2.78;2.67;;;;;;;;;;5027215;28;20072;-49
2021/04/19 09:58:41;;;;;;;2.85;2.60;;;;;;;;;;5026920;28;20037;-53
2021/04/19 10:01:07;;;;;;;1.83;1.83;;;;;;;;;;5029671;28;20049;-53
2021/04/19 10:03:34;;;;;;;4.22;4.03;;;;;;;;;;5029925;28;20041;-50
2021/04/19 10:06:03;;;;;;;2.47;2.47;;;;;;;;;;5029714;28;20068;-52
2021/04/19 10:08:30;;;;;;;2.28;2.28;;;;;;;;;;5027928;28;20045;-53
2021/04/19 10:10:58;;;;;;;3.67;3.47;;;;;;;;;;5024984;28;20057;-53
2021/04/19 10:13:25;;;;;;;3.03;2.92;;;;;;;;;;5029508;28;20489;-53
2021/04/19 10:16:12;;;;;;;2.60;2.50;;;;;;;;;;5041324;28;20032;-50
2021/04/19 10:18:40;;;;;;;3.05;2.95;;;;;;;;;;5030900;28;20041;-53
2021/04/19 10:21:08;;;;;;;1.50;1.50;;;;;;;;;;5030458;28;20088;-53
2021/04/19 10:23:41;;;;;;;2.30;2.30;;;;;;;;;;5021538;28;20089;-53
2021/04/19 10:26:09;;;;;;;1.70;1.70;;;;;;;;;;5028905;28;20369;-51
2021/04/19 10:28:36;;;;;;;6.07;5.88;;;;;;;;;;5016560;28;20050;-53
2021/04/19 10:31:10;;;;;;;2.50;2.38;;;;;;;;;;5026679;28;20053;-54
2021/04/19 10:33:37;;;;;;;2.00;2.00;;;;;;;;;;5029528;28;20096;-53
2021/04/19 10:36:11;;;;;;;2.92;2.72;;;;;;;;;;5031270;28;20128;-52
2021/04/19 10:38:38;;;;;;;7.85;7.20;;;;;;;;;;5026775;28;20034;-53
2021/04/19 10:41:05;;;;;;;10.48;9.57;;;;;;;;;;5028524;28;20474;-52
2021/04/19 10:43:31;;;;;;;5.18;4.95;;;;;;;;;;5025603;28;20076;-53
2021/04/19 10:45:58;;;;;;;5.53;5.20;;;;;;;;;;5027619;28;20042;-50
2021/04/19 10:48:27;;;;;;;2.22;2.22;;;;;;;;;;5040743;28;20047;-52
2021/04/19 10:50:55;;;;;;;1.90;1.90;;;;;;;;;;5037198;28;20041;-53
2021/04/19 10:53:48;;;;;;;2.05;2.05;;;;;;;;;;5026072;28;20096;-52
2021/04/19 10:56:21;;;;;;;1.80;1.80;;;;;;;;;;5026635;28;20057;-51
2021/04/19 10:58:47;;;;;;;2.75;2.65;;;;;;;;;;5028974;28;20052;-53
2021/04/19 11:01:19;;;;;;;2.38;2.28;;;;;;;;;;5030881;28;20442;-53
2021/04/19 11:03:46;;;;;;;1.70;1.70;;;;;;;;;;5025738;28;20068;-47
2021/04/19 11:06:15;;;;;;;1.80;1.70;;;;;;;;;;5017584;28;20065;-52
2021/04/19 11:08:48;;;;;;;1.30;1.30;;;;;;;;;;5021411;28;20104;-53
2021/04/19 11:11:14;;;;;;;;;;;;;;;;;;5030107;28;20474;-53
2021/04/19 11:13:40;;;;;;;1.50;1.50;;;;;;;;;;5030895;28;19960;-53
2021/04/19 11:16:08;;;;;;;1.40;1.40;;;;;;;;;;5032945;28;20505;-53
2021/04/19 11:18:41;;;;;;;1.77;1.77;;;;;;;;;;5039130;28;20041;-53
2021/04/19 11:21:07;;;;;;;1.30;1.30;;;;;;;;;;5035798;28;20049;-53
2021/04/19 11:23:36;;;;;;;1.55;1.45;;;;;;;;;;5029399;28;20037;-52
2021/04/19 11:26:09;;;;;;;1.40;1.40;;;;;;;;;;5035113;28;20108;-54
2021/04/19 11:28:44;;;;;;;3.15;2.42;;;;;;;;;;5031278;28;20038;-53
2021/04/19 11:31:19;;;;;;;2.70;2.70;;;;;;;;;;5028456;28;20104;-54
2021/04/19 11:33:47;;;;;;;1.90;1.90;;;;;;;;;;5013480;28;20042;-53
2021/04/19 11:36:37;;;;;;;4.60;4.50;;;;;;;;;;5022044;28;20037;-53
2021/04/19 11:39:30;;;;;;;12.55;11.52;;;;;;;;;;5025470;28;20038;-51
2021/04/19 11:41:56;;;;;;;3.58;3.47;;;;;;;;;;5026534;28;20412;-50
2021/04/19 11:44:54;;;;;;;2.10;2.10;;;;;;;;;;5030054;28;20482;-52
2021/04/19 11:47:21;;;;;;;3.00;2.55;;;;;;;;;;5025029;28;20124;-51
2021/04/19 11:49:51;;;;;;;3.67;3.58;;;;;;;;;;5028157;28;20050;-51
2021/04/19 11:52:18;;;;;;;5.50;5.30;;;;;;;;;;5026275;28;20179;-48
2021/04/19 11:54:45;;;;;;;3.53;3.42;;;;;;;;;;5028278;28;20044;-48
2021/04/19 11:57:11;;;;;;;5.13;4.97;;;;;;;;;;5028409;28;20449;-48
2021/04/19 11:59:37;;;;;;;2.90;2.80;;;;;;;;;;5028186;28;20395;-47
2021/04/19 12:02:04;;;;;;;10.05;9.10;;;;;;;;;;5029191;28;20131;-50
2021/04/19 12:04:30;;;;;;;3.17;3.08;;;;;;;;;;5031350;28;20405;-48
2021/04/19 12:06:57;;;;;;;2.42;2.33;;;;;;;;;;5030284;28;20544;-47
2021/04/19 12:09:23;;;;;;;2.03;2.03;;;;;;;;;;5019376;28;20106;-52
2021/04/19 12:11:51;;;;;;;1.88;1.77;;;;;;;;;;5024617;28;20075;-49
2021/04/19 12:14:17;;;;;;;6.55;6.45;;;;;;;;;;5031175;28;20053;-51
2021/04/19 12:16:43;;;;;;;2.97;2.88;;;;;;;;;;5032082;28;20476;-46
2021/04/19 12:19:11;;;;;;;2.35;2.35;;;;;;;;;;5029019;28;20053;-49
2021/04/19 12:21:37;;;;;;;1.85;1.85;;;;;;;;;;5023795;28;20053;-49
2021/04/19 12:24:04;;;;;;;2.30;2.30;;;;;;;;;;5029183;28;20041;-51
2021/04/19 12:26:30;;;;;;;2.30;2.30;;;;;;;;;;5023558;28;20038;-48
2021/04/19 12:29:09;;;;;;;2.67;2.58;;;;;;;;;;5031217;28;20037;-52
2021/04/19 12:31:36;;;;;;;3.08;2.85;;;;;;;;;;5031610;28;20071;-49
2021/04/19 12:34:02;;;;;;;1.92;1.92;;;;;;;;;;5034383;28;20122;-45
2021/04/19 12:36:31;;;;;;;2.42;2.33;;;;;;;;;;5027103;28;20061;-47
2021/04/19 12:38:57;;;;;;;2.20;2.20;;;;;;;;;;5021189;28;20053;-44
2021/04/19 12:41:24;;;;;;;3.05;2.95;;;;;;;;;;5030925;28;20092;-44
2021/04/19 12:43:50;;;;;;;2.30;2.30;;;;;;;;;;5026039;28;20045;-48
2021/04/19 12:46:16;;;;;;;5.80;5.60;;;;;;;;;;5032319;28;20509;-46
2021/04/19 12:48:42;;;;;;;6.63;6.43;;;;;;;;;;5033514;28;20413;-45
2021/04/19 12:51:12;;;;;;;1.50;1.50;;;;;;;;;;5033264;28;20448;-45
2021/04/19 12:53:38;;;;;;;3.88;3.78;;;;;;;;;;5020893;28;20070;-44
2021/04/19 12:56:05;;;;;;;2.47;2.47;;;;;;;;;;5027843;28;20036;-45
2021/04/19 12:58:31;;;;;;;2.42;2.42;;;;;;;;;;5026442;28;20034;-44
2021/04/19 13:00:57;;;;;;;1.67;1.67;;;;;;;;;;5032433;28;20402;-45
2021/04/19 13:03:23;;;;;;;2.20;2.20;;;;;;;;;;5033906;28;20049;-44
2021/04/19 13:05:50;;;;;;;3.38;3.17;;;;;;;;;;5020505;28;20058;-44
2021/04/19 13:08:18;;;;;;;2.20;2.20;;;;;;;;;;5026132;28;20041;-43
2021/04/19 13:10:44;;;;;;;2.67;2.42;;;;;;;;;;5015300;28;20658;-43
2021/04/19 13:13:10;;;;;;;3.03;3.03;;;;;;;;;;5032159;28;20099;-45
2021/04/19 13:15:37;;;;;;;2.42;2.33;;;;;;;;;;5032840;28;20075;-47
2021/04/19 13:18:04;;;;;;;1.70;1.70;;;;;;;;;;5033182;28;20498;-44
2021/04/19 13:20:31;;;;;;;1.67;1.58;;;;;;;;;;5027652;28;20045;-44
2021/04/19 13:22:57;;;;;;;1.33;1.33;;;;;;;;;;5016576;28;20052;-42
2021/04/19 13:25:24;;;;;;;1.45;1.20;;;;;;;;;;5031689;28;20037;-43
2021/04/19 13:27:50;;;;;;;1.13;1.13;;;;;;;;;;5025061;28;20125;-44
2021/04/19 13:30:17;;;;;;;1.67;1.67;;;;;;;;;;5032912;28;20064;-43
2021/04/19 13:32:43;;;;;;;1.30;1.30;;;;;;;;;;5028975;28;20041;-44
2021/04/19 13:35:10;;;;;;;2.15;1.30;;;;;;;;;;5014315;28;20034;-44
2021/04/19 13:37:37;;;;;;;2.75;1.40;;;;;;;;;;5026318;28;20044;-44
2021/04/19 13:40:07;;;;;;;1.50;1.50;;;;;;;;;;5022363;28;20049;-46
2021/04/19 13:42:34;;;;;;;2.67;1.33;;;;;;;;;;5032859;28;20045;-45
2021/04/19 13:45:00;;;;;;;1.17;1.15;;;;;;;;;;5029356;28;20046;-44
2021/04/19 13:47:27;;;;;;;1.45;1.45;;;;;;;;;;5031922;28;20030;-44
2021/04/19 13:49:53;;;;;;;1.60;1.50;;;;;;;;;;5031945;28;20524;-44
2021/04/19 13:52:19;;;;;;;1.10;1.10;;;;;;;;;;5031023;28;20041;-45
2021/04/19 13:54:46;;;;;;;1.40;1.40;;;;;;;;;;5031093;28;20116;-43
2021/04/19 13:57:12;;;;;;;2.67;2.33;;;;;;;;;;5025322;28;20041;-45
2021/04/19 13:59:39;;;;;;;1.95;1.85;;;;;;;;;;5027549;28;20044;-46
2021/04/19 14:02:05;;;;;;;2.22;2.13;;;;;;;;;;5021708;28;20074;-46
2021/04/19 14:04:31;;;;;;;3.20;1.52;;;;;;;;;;5022491;28;20460;-44
2021/04/19 14:06:57;;;;;;;2.53;1.55;;;;;;;;;;5015045;28;20034;-44
2021/04/19 14:09:23;;;;;;;1.42;1.42;;;;;;;;;;5031660;28;20486;-44
2021/04/19 14:11:50;;;;;;;1.80;1.80;;;;;;;;;;5031696;28;20068;-45
2021/04/19 14:14:22;;;;;;;2.40;2.33;;;;;;;;;;5025149;28;20117;-43
2021/04/19 14:16:49;;;;;;;2.40;2.30;;;;;;;;;;5026205;28;20038;-46
2021/04/19 14:19:15;;;;;;;2.55;2.45;;;;;;;;;;5013302;28;20037;-44
2021/04/19 14:21:41;;;;;;;2.45;2.45;;;;;;;;;;5030179;28;20041;-44
2021/04/19 14:24:08;;;;;;;2.33;2.13;;;;;;;;;;5030660;28;20053;-42
2021/04/19 14:26:35;;;;;;;1.63;1.63;;;;;;;;;;5019870;28;20042;-45
2021/04/19 14:29:02;;;;;;;2.28;2.17;;;;;;;;;;5031100;28;20351;-43
2021/04/19 14:31:30;;;;;;;1.80;1.80;;;;;;;;;;5027392;28;20050;-45
2021/04/19 14:33:57;;;;;;;1.63;1.60;;;;;;;;;;5030993;28;20111;-43
2021/04/19 14:36:26;;;;;;;1.70;1.70;;;;;;;;;;5029802;28;20056;-45
2021/04/19 14:38:56;;;;;;;1.58;1.58;;;;;;;;;;5017362;28;20042;-45